<?xml version="1.0" encoding="UTF-8" standalone="no" ?>
<gpx xmlns="http://www.topografix.com/GPX/1/1" xmlns:xsi="http://www.w3.org/2001/XMLSchema-instance" xsi:schemaLocation="http://www.topografix.com/GPX/1/1 http://www.topografix.com/GPX/1/1/gpx.xsd" version="1.1" creator="VisuGPX - https://www.visugpx.com">
  <metadata>
    <name>Circuits des Escargots au départ de Rocamadour</name>
    <desc><![CDATA[Importé de VisoRando]]></desc>
  </metadata>
  <wpt lat="44.80525" lon="1.62642">
    <ele>259</ele>
    <name><![CDATA[Parking au village de l'Hospitalet ]]></name>
  </wpt>
  <wpt lat="44.7928" lon="1.59099">
    <ele>150</ele>
    <name><![CDATA[Croix du Crouzol ou col de Magès]]></name>
  </wpt>
  <wpt lat="44.79921" lon="1.56013">
    <ele>108</ele>
    <name><![CDATA[Moulin de la Peyre]]></name>
  </wpt>
  <wpt lat="44.81306" lon="1.55969">
    <ele>114</ele>
    <name><![CDATA[Carrefour après le moulin fortifié de Cougnaguet]]></name>
  </wpt>
  <wpt lat="44.8124" lon="1.57408">
    <ele>260</ele>
    <name><![CDATA[Ferme de la Vitalie]]></name>
  </wpt>
  <wpt lat="44.81849" lon="1.5826">
    <ele>249</ele>
    <name><![CDATA[Virage à 180°]]></name>
  </wpt>
  <wpt lat="44.80592" lon="1.58402">
    <ele>250</ele>
    <name><![CDATA[La Gardelle]]></name>
  </wpt>
  <wpt lat="44.80788" lon="1.59097">
    <ele>193</ele>
    <name><![CDATA[Source de Font Haute]]></name>
  </wpt>
  <wpt lat="44.80458" lon="1.60623">
    <ele>265</ele>
    <name><![CDATA[D673]]></name>
  </wpt>
  <wpt lat="44.80187" lon="1.61762">
    <ele>259</ele>
    <name><![CDATA[Rocher des Aigles]]></name>
  </wpt>
  <wpt lat="44.80487" lon="1.62434">
    <ele>256</ele>
    <name><![CDATA[Carrefour avant la Poste]]></name>
  </wpt>
  <wpt lat="44.80522" lon="1.62646">
    <ele>259</ele>
    <name><![CDATA[Parking au village de l'Hospitalet]]></name>
  </wpt>
  <trk>
    <name><![CDATA[Circuits des Escargots au départ de Rocamadour]]></name>
    <trkseg>
      <trkpt lat="44.80525" lon="1.62642">
        <ele>259</ele>
        <time>2020-09-03T20:44:01+02:00</time>
      </trkpt>
      <trkpt lat="44.80409" lon="1.62597">
        <ele>248</ele>
        <time>2020-09-03T20:44:06+02:00</time>
      </trkpt>
      <trkpt lat="44.80404" lon="1.62501">
        <ele>232</ele>
        <time>2020-09-03T20:44:11+02:00</time>
      </trkpt>
      <trkpt lat="44.80403" lon="1.62399">
        <ele>226</ele>
        <time>2020-09-03T20:44:16+02:00</time>
      </trkpt>
      <trkpt lat="44.80383" lon="1.62318">
        <ele>218</ele>
        <time>2020-09-03T20:44:21+02:00</time>
      </trkpt>
      <trkpt lat="44.8034" lon="1.62262">
        <ele>205</ele>
        <time>2020-09-03T20:44:26+02:00</time>
      </trkpt>
      <trkpt lat="44.80182" lon="1.6202">
        <ele>185</ele>
        <time>2020-09-03T20:44:31+02:00</time>
      </trkpt>
      <trkpt lat="44.80238" lon="1.62193">
        <ele>166</ele>
        <time>2020-09-03T20:44:36+02:00</time>
      </trkpt>
      <trkpt lat="44.80254" lon="1.6226">
        <ele>157</ele>
        <time>2020-09-03T20:44:41+02:00</time>
      </trkpt>
      <trkpt lat="44.80225" lon="1.62264">
        <ele>151</ele>
        <time>2020-09-03T20:44:46+02:00</time>
      </trkpt>
      <trkpt lat="44.802" lon="1.62228">
        <ele>151</ele>
        <time>2020-09-03T20:44:51+02:00</time>
      </trkpt>
      <trkpt lat="44.80176" lon="1.62144">
        <ele>155</ele>
        <time>2020-09-03T20:44:56+02:00</time>
      </trkpt>
      <trkpt lat="44.80142" lon="1.62082">
        <ele>157</ele>
        <time>2020-09-03T20:45:01+02:00</time>
      </trkpt>
      <trkpt lat="44.80062" lon="1.61957">
        <ele>159</ele>
        <time>2020-09-03T20:45:06+02:00</time>
      </trkpt>
      <trkpt lat="44.79961" lon="1.61913">
        <ele>151</ele>
        <time>2020-09-03T20:45:11+02:00</time>
      </trkpt>
      <trkpt lat="44.7992" lon="1.61873">
        <ele>156</ele>
        <time>2020-09-03T20:45:16+02:00</time>
      </trkpt>
      <trkpt lat="44.79861" lon="1.61846">
        <ele>152</ele>
        <time>2020-09-03T20:45:21+02:00</time>
      </trkpt>
      <trkpt lat="44.79791" lon="1.61784">
        <ele>150</ele>
        <time>2020-09-03T20:45:26+02:00</time>
      </trkpt>
      <trkpt lat="44.7975" lon="1.6173">
        <ele>146</ele>
        <time>2020-09-03T20:45:31+02:00</time>
      </trkpt>
      <trkpt lat="44.79721" lon="1.61676">
        <ele>150</ele>
        <time>2020-09-03T20:45:36+02:00</time>
      </trkpt>
      <trkpt lat="44.79687" lon="1.61599">
        <ele>151</ele>
        <time>2020-09-03T20:45:41+02:00</time>
      </trkpt>
      <trkpt lat="44.79651" lon="1.61517">
        <ele>154</ele>
        <time>2020-09-03T20:45:46+02:00</time>
      </trkpt>
      <trkpt lat="44.79628" lon="1.61429">
        <ele>155</ele>
        <time>2020-09-03T20:45:51+02:00</time>
      </trkpt>
      <trkpt lat="44.79623" lon="1.61367">
        <ele>152</ele>
        <time>2020-09-03T20:45:56+02:00</time>
      </trkpt>
      <trkpt lat="44.79659" lon="1.61281">
        <ele>150</ele>
        <time>2020-09-03T20:46:01+02:00</time>
      </trkpt>
      <trkpt lat="44.79698" lon="1.61221">
        <ele>157</ele>
        <time>2020-09-03T20:46:06+02:00</time>
      </trkpt>
      <trkpt lat="44.79714" lon="1.61129">
        <ele>156</ele>
        <time>2020-09-03T20:46:11+02:00</time>
      </trkpt>
      <trkpt lat="44.79736" lon="1.61045">
        <ele>159</ele>
        <time>2020-09-03T20:46:16+02:00</time>
      </trkpt>
      <trkpt lat="44.79693" lon="1.60962">
        <ele>159</ele>
        <time>2020-09-03T20:46:21+02:00</time>
      </trkpt>
      <trkpt lat="44.79651" lon="1.60899">
        <ele>161</ele>
        <time>2020-09-03T20:46:26+02:00</time>
      </trkpt>
      <trkpt lat="44.79515" lon="1.6077">
        <ele>146</ele>
        <time>2020-09-03T20:46:31+02:00</time>
      </trkpt>
      <trkpt lat="44.79495" lon="1.60717">
        <ele>142</ele>
        <time>2020-09-03T20:46:36+02:00</time>
      </trkpt>
      <trkpt lat="44.79499" lon="1.60666">
        <ele>142</ele>
        <time>2020-09-03T20:46:41+02:00</time>
      </trkpt>
      <trkpt lat="44.79518" lon="1.60614">
        <ele>147</ele>
        <time>2020-09-03T20:46:46+02:00</time>
      </trkpt>
      <trkpt lat="44.79559" lon="1.60539">
        <ele>152</ele>
        <time>2020-09-03T20:46:51+02:00</time>
      </trkpt>
      <trkpt lat="44.79588" lon="1.6044">
        <ele>151</ele>
        <time>2020-09-03T20:46:56+02:00</time>
      </trkpt>
      <trkpt lat="44.79582" lon="1.60382">
        <ele>155</ele>
        <time>2020-09-03T20:47:01+02:00</time>
      </trkpt>
      <trkpt lat="44.795" lon="1.60241">
        <ele>144</ele>
        <time>2020-09-03T20:47:06+02:00</time>
      </trkpt>
      <trkpt lat="44.79428" lon="1.60086">
        <ele>145</ele>
        <time>2020-09-03T20:47:11+02:00</time>
      </trkpt>
      <trkpt lat="44.79436" lon="1.60028">
        <ele>144</ele>
        <time>2020-09-03T20:47:16+02:00</time>
      </trkpt>
      <trkpt lat="44.7945" lon="1.59981">
        <ele>146</ele>
        <time>2020-09-03T20:47:21+02:00</time>
      </trkpt>
      <trkpt lat="44.79565" lon="1.5991">
        <ele>156</ele>
        <time>2020-09-03T20:47:26+02:00</time>
      </trkpt>
      <trkpt lat="44.79604" lon="1.59865">
        <ele>156</ele>
        <time>2020-09-03T20:47:31+02:00</time>
      </trkpt>
      <trkpt lat="44.79633" lon="1.59772">
        <ele>162</ele>
        <time>2020-09-03T20:47:36+02:00</time>
      </trkpt>
      <trkpt lat="44.79616" lon="1.59691">
        <ele>163</ele>
        <time>2020-09-03T20:47:41+02:00</time>
      </trkpt>
      <trkpt lat="44.79564" lon="1.59631">
        <ele>157</ele>
        <time>2020-09-03T20:47:46+02:00</time>
      </trkpt>
      <trkpt lat="44.79492" lon="1.59573">
        <ele>149</ele>
        <time>2020-09-03T20:47:51+02:00</time>
      </trkpt>
      <trkpt lat="44.7946" lon="1.59573">
        <ele>144</ele>
        <time>2020-09-03T20:47:56+02:00</time>
      </trkpt>
      <trkpt lat="44.79428" lon="1.59591">
        <ele>138</ele>
        <time>2020-09-03T20:48:01+02:00</time>
      </trkpt>
      <trkpt lat="44.7941" lon="1.5961">
        <ele>143</ele>
        <time>2020-09-03T20:48:06+02:00</time>
      </trkpt>
      <trkpt lat="44.79368" lon="1.59586">
        <ele>148</ele>
        <time>2020-09-03T20:48:11+02:00</time>
      </trkpt>
      <trkpt lat="44.79319" lon="1.59527">
        <ele>151</ele>
        <time>2020-09-03T20:48:16+02:00</time>
      </trkpt>
      <trkpt lat="44.79282" lon="1.59438">
        <ele>155</ele>
        <time>2020-09-03T20:48:21+02:00</time>
      </trkpt>
      <trkpt lat="44.7926" lon="1.59329">
        <ele>154</ele>
        <time>2020-09-03T20:48:26+02:00</time>
      </trkpt>
      <trkpt lat="44.79269" lon="1.59224">
        <ele>152</ele>
        <time>2020-09-03T20:48:31+02:00</time>
      </trkpt>
      <trkpt lat="44.79286" lon="1.59167">
        <ele>149</ele>
        <time>2020-09-03T20:48:36+02:00</time>
      </trkpt>
      <trkpt lat="44.7928" lon="1.59099">
        <ele>150</ele>
        <time>2020-09-03T20:48:41+02:00</time>
      </trkpt>
      <trkpt lat="44.79287" lon="1.59046">
        <ele>152</ele>
        <time>2020-09-03T20:48:46+02:00</time>
      </trkpt>
      <trkpt lat="44.7927" lon="1.58756">
        <ele>147</ele>
        <time>2020-09-03T20:48:51+02:00</time>
      </trkpt>
      <trkpt lat="44.79262" lon="1.58672">
        <ele>147</ele>
        <time>2020-09-03T20:48:56+02:00</time>
      </trkpt>
      <trkpt lat="44.7923" lon="1.58582">
        <ele>144</ele>
        <time>2020-09-03T20:49:01+02:00</time>
      </trkpt>
      <trkpt lat="44.79205" lon="1.58531">
        <ele>141</ele>
        <time>2020-09-03T20:49:06+02:00</time>
      </trkpt>
      <trkpt lat="44.79176" lon="1.5842">
        <ele>138</ele>
        <time>2020-09-03T20:49:11+02:00</time>
      </trkpt>
      <trkpt lat="44.7918" lon="1.58314">
        <ele>136</ele>
        <time>2020-09-03T20:49:16+02:00</time>
      </trkpt>
      <trkpt lat="44.79197" lon="1.58247">
        <ele>136</ele>
        <time>2020-09-03T20:49:21+02:00</time>
      </trkpt>
      <trkpt lat="44.79172" lon="1.58218">
        <ele>132</ele>
        <time>2020-09-03T20:49:26+02:00</time>
      </trkpt>
      <trkpt lat="44.79162" lon="1.58189">
        <ele>132</ele>
        <time>2020-09-03T20:49:31+02:00</time>
      </trkpt>
      <trkpt lat="44.79144" lon="1.58116">
        <ele>132</ele>
        <time>2020-09-03T20:49:36+02:00</time>
      </trkpt>
      <trkpt lat="44.79148" lon="1.58043">
        <ele>137</ele>
        <time>2020-09-03T20:49:41+02:00</time>
      </trkpt>
      <trkpt lat="44.79133" lon="1.57904">
        <ele>136</ele>
        <time>2020-09-03T20:49:46+02:00</time>
      </trkpt>
      <trkpt lat="44.79133" lon="1.57844">
        <ele>136</ele>
        <time>2020-09-03T20:49:51+02:00</time>
      </trkpt>
      <trkpt lat="44.79148" lon="1.5778">
        <ele>136</ele>
        <time>2020-09-03T20:49:56+02:00</time>
      </trkpt>
      <trkpt lat="44.79163" lon="1.57701">
        <ele>132</ele>
        <time>2020-09-03T20:50:01+02:00</time>
      </trkpt>
      <trkpt lat="44.79183" lon="1.57623">
        <ele>128</ele>
        <time>2020-09-03T20:50:06+02:00</time>
      </trkpt>
      <trkpt lat="44.79277" lon="1.57491">
        <ele>132</ele>
        <time>2020-09-03T20:50:11+02:00</time>
      </trkpt>
      <trkpt lat="44.79332" lon="1.57383">
        <ele>127</ele>
        <time>2020-09-03T20:50:16+02:00</time>
      </trkpt>
      <trkpt lat="44.79356" lon="1.573">
        <ele>127</ele>
        <time>2020-09-03T20:50:21+02:00</time>
      </trkpt>
      <trkpt lat="44.79376" lon="1.57266">
        <ele>129</ele>
        <time>2020-09-03T20:50:26+02:00</time>
      </trkpt>
      <trkpt lat="44.79384" lon="1.57224">
        <ele>126</ele>
        <time>2020-09-03T20:50:31+02:00</time>
      </trkpt>
      <trkpt lat="44.79439" lon="1.57158">
        <ele>128</ele>
        <time>2020-09-03T20:50:36+02:00</time>
      </trkpt>
      <trkpt lat="44.795" lon="1.57097">
        <ele>128</ele>
        <time>2020-09-03T20:50:41+02:00</time>
      </trkpt>
      <trkpt lat="44.79548" lon="1.57033">
        <ele>135</ele>
        <time>2020-09-03T20:50:46+02:00</time>
      </trkpt>
      <trkpt lat="44.79587" lon="1.56956">
        <ele>138</ele>
        <time>2020-09-03T20:50:51+02:00</time>
      </trkpt>
      <trkpt lat="44.79596" lon="1.56876">
        <ele>142</ele>
        <time>2020-09-03T20:50:56+02:00</time>
      </trkpt>
      <trkpt lat="44.79579" lon="1.5681">
        <ele>143</ele>
        <time>2020-09-03T20:51:01+02:00</time>
      </trkpt>
      <trkpt lat="44.79518" lon="1.56745">
        <ele>133</ele>
        <time>2020-09-03T20:51:06+02:00</time>
      </trkpt>
      <trkpt lat="44.79492" lon="1.5672">
        <ele>127</ele>
        <time>2020-09-03T20:51:11+02:00</time>
      </trkpt>
      <trkpt lat="44.79462" lon="1.56681">
        <ele>123</ele>
        <time>2020-09-03T20:51:16+02:00</time>
      </trkpt>
      <trkpt lat="44.79456" lon="1.56638">
        <ele>120</ele>
        <time>2020-09-03T20:51:21+02:00</time>
      </trkpt>
      <trkpt lat="44.79495" lon="1.56584">
        <ele>121</ele>
        <time>2020-09-03T20:51:26+02:00</time>
      </trkpt>
      <trkpt lat="44.79544" lon="1.56544">
        <ele>125</ele>
        <time>2020-09-03T20:51:31+02:00</time>
      </trkpt>
      <trkpt lat="44.79597" lon="1.56474">
        <ele>121</ele>
        <time>2020-09-03T20:51:36+02:00</time>
      </trkpt>
      <trkpt lat="44.79646" lon="1.56427">
        <ele>124</ele>
        <time>2020-09-03T20:51:41+02:00</time>
      </trkpt>
      <trkpt lat="44.79699" lon="1.56348">
        <ele>123</ele>
        <time>2020-09-03T20:51:46+02:00</time>
      </trkpt>
      <trkpt lat="44.79728" lon="1.56292">
        <ele>121</ele>
        <time>2020-09-03T20:51:51+02:00</time>
      </trkpt>
      <trkpt lat="44.79748" lon="1.56236">
        <ele>116</ele>
        <time>2020-09-03T20:51:56+02:00</time>
      </trkpt>
      <trkpt lat="44.79794" lon="1.56147">
        <ele>118</ele>
        <time>2020-09-03T20:52:01+02:00</time>
      </trkpt>
      <trkpt lat="44.79829" lon="1.56119">
        <ele>116</ele>
        <time>2020-09-03T20:52:06+02:00</time>
      </trkpt>
      <trkpt lat="44.79861" lon="1.56083">
        <ele>111</ele>
        <time>2020-09-03T20:52:11+02:00</time>
      </trkpt>
      <trkpt lat="44.79891" lon="1.56035">
        <ele>110</ele>
        <time>2020-09-03T20:52:16+02:00</time>
      </trkpt>
      <trkpt lat="44.79921" lon="1.56013">
        <ele>108</ele>
        <time>2020-09-03T20:52:21+02:00</time>
      </trkpt>
      <trkpt lat="44.79961" lon="1.5607">
        <ele>111</ele>
        <time>2020-09-03T20:52:26+02:00</time>
      </trkpt>
      <trkpt lat="44.79981" lon="1.56078">
        <ele>112</ele>
        <time>2020-09-03T20:52:31+02:00</time>
      </trkpt>
      <trkpt lat="44.80002" lon="1.56035">
        <ele>110</ele>
        <time>2020-09-03T20:52:36+02:00</time>
      </trkpt>
      <trkpt lat="44.80027" lon="1.55999">
        <ele>111</ele>
        <time>2020-09-03T20:52:41+02:00</time>
      </trkpt>
      <trkpt lat="44.80063" lon="1.5598">
        <ele>113</ele>
        <time>2020-09-03T20:52:46+02:00</time>
      </trkpt>
      <trkpt lat="44.80111" lon="1.55961">
        <ele>117</ele>
        <time>2020-09-03T20:52:51+02:00</time>
      </trkpt>
      <trkpt lat="44.80141" lon="1.5594">
        <ele>117</ele>
        <time>2020-09-03T20:52:56+02:00</time>
      </trkpt>
      <trkpt lat="44.8022" lon="1.55882">
        <ele>119</ele>
        <time>2020-09-03T20:53:01+02:00</time>
      </trkpt>
      <trkpt lat="44.80319" lon="1.55808">
        <ele>117</ele>
        <time>2020-09-03T20:53:06+02:00</time>
      </trkpt>
      <trkpt lat="44.80403" lon="1.55735">
        <ele>110</ele>
        <time>2020-09-03T20:53:11+02:00</time>
      </trkpt>
      <trkpt lat="44.80465" lon="1.55785">
        <ele>112</ele>
        <time>2020-09-03T20:53:16+02:00</time>
      </trkpt>
      <trkpt lat="44.80528" lon="1.55861">
        <ele>113</ele>
        <time>2020-09-03T20:53:21+02:00</time>
      </trkpt>
      <trkpt lat="44.80622" lon="1.56007">
        <ele>119</ele>
        <time>2020-09-03T20:53:26+02:00</time>
      </trkpt>
      <trkpt lat="44.80651" lon="1.56036">
        <ele>118</ele>
        <time>2020-09-03T20:53:31+02:00</time>
      </trkpt>
      <trkpt lat="44.80674" lon="1.56108">
        <ele>121</ele>
        <time>2020-09-03T20:53:36+02:00</time>
      </trkpt>
      <trkpt lat="44.80697" lon="1.56186">
        <ele>125</ele>
        <time>2020-09-03T20:53:41+02:00</time>
      </trkpt>
      <trkpt lat="44.80724" lon="1.56265">
        <ele>128</ele>
        <time>2020-09-03T20:53:46+02:00</time>
      </trkpt>
      <trkpt lat="44.80742" lon="1.563">
        <ele>129</ele>
        <time>2020-09-03T20:53:51+02:00</time>
      </trkpt>
      <trkpt lat="44.80773" lon="1.56331">
        <ele>130</ele>
        <time>2020-09-03T20:53:56+02:00</time>
      </trkpt>
      <trkpt lat="44.80817" lon="1.56347">
        <ele>134</ele>
        <time>2020-09-03T20:54:01+02:00</time>
      </trkpt>
      <trkpt lat="44.80858" lon="1.56325">
        <ele>131</ele>
        <time>2020-09-03T20:54:06+02:00</time>
      </trkpt>
      <trkpt lat="44.80893" lon="1.56258">
        <ele>127</ele>
        <time>2020-09-03T20:54:11+02:00</time>
      </trkpt>
      <trkpt lat="44.80893" lon="1.56207">
        <ele>123</ele>
        <time>2020-09-03T20:54:16+02:00</time>
      </trkpt>
      <trkpt lat="44.80888" lon="1.56126">
        <ele>119</ele>
        <time>2020-09-03T20:54:21+02:00</time>
      </trkpt>
      <trkpt lat="44.8091" lon="1.56005">
        <ele>115</ele>
        <time>2020-09-03T20:54:26+02:00</time>
      </trkpt>
      <trkpt lat="44.80928" lon="1.55977">
        <ele>113</ele>
        <time>2020-09-03T20:54:31+02:00</time>
      </trkpt>
      <trkpt lat="44.80966" lon="1.55981">
        <ele>114</ele>
        <time>2020-09-03T20:54:36+02:00</time>
      </trkpt>
      <trkpt lat="44.81006" lon="1.56007">
        <ele>114</ele>
        <time>2020-09-03T20:54:41+02:00</time>
      </trkpt>
      <trkpt lat="44.81039" lon="1.56046">
        <ele>119</ele>
        <time>2020-09-03T20:54:46+02:00</time>
      </trkpt>
      <trkpt lat="44.81093" lon="1.56108">
        <ele>124</ele>
        <time>2020-09-03T20:54:51+02:00</time>
      </trkpt>
      <trkpt lat="44.81118" lon="1.56102">
        <ele>123</ele>
        <time>2020-09-03T20:54:56+02:00</time>
      </trkpt>
      <trkpt lat="44.81141" lon="1.56078">
        <ele>118</ele>
        <time>2020-09-03T20:55:01+02:00</time>
      </trkpt>
      <trkpt lat="44.81163" lon="1.56065">
        <ele>118</ele>
        <time>2020-09-03T20:55:06+02:00</time>
      </trkpt>
      <trkpt lat="44.81185" lon="1.56069">
        <ele>122</ele>
        <time>2020-09-03T20:55:11+02:00</time>
      </trkpt>
      <trkpt lat="44.81234" lon="1.56019">
        <ele>118</ele>
        <time>2020-09-03T20:55:16+02:00</time>
      </trkpt>
      <trkpt lat="44.81268" lon="1.55989">
        <ele>113</ele>
        <time>2020-09-03T20:55:21+02:00</time>
      </trkpt>
      <trkpt lat="44.81306" lon="1.55969">
        <ele>114</ele>
        <time>2020-09-03T20:55:26+02:00</time>
      </trkpt>
      <trkpt lat="44.81341" lon="1.56004">
        <ele>121</ele>
        <time>2020-09-03T20:55:31+02:00</time>
      </trkpt>
      <trkpt lat="44.8136" lon="1.56036">
        <ele>132</ele>
        <time>2020-09-03T20:55:36+02:00</time>
      </trkpt>
      <trkpt lat="44.81403" lon="1.56076">
        <ele>141</ele>
        <time>2020-09-03T20:55:41+02:00</time>
      </trkpt>
      <trkpt lat="44.81432" lon="1.56058">
        <ele>142</ele>
        <time>2020-09-03T20:55:46+02:00</time>
      </trkpt>
      <trkpt lat="44.8147" lon="1.5605">
        <ele>150</ele>
        <time>2020-09-03T20:55:51+02:00</time>
      </trkpt>
      <trkpt lat="44.81502" lon="1.56024">
        <ele>156</ele>
        <time>2020-09-03T20:55:56+02:00</time>
      </trkpt>
      <trkpt lat="44.81526" lon="1.56022">
        <ele>157</ele>
        <time>2020-09-03T20:56:01+02:00</time>
      </trkpt>
      <trkpt lat="44.81564" lon="1.56033">
        <ele>157</ele>
        <time>2020-09-03T20:56:06+02:00</time>
      </trkpt>
      <trkpt lat="44.81641" lon="1.56046">
        <ele>160</ele>
        <time>2020-09-03T20:56:11+02:00</time>
      </trkpt>
      <trkpt lat="44.81677" lon="1.56065">
        <ele>162</ele>
        <time>2020-09-03T20:56:16+02:00</time>
      </trkpt>
      <trkpt lat="44.817" lon="1.56084">
        <ele>163</ele>
        <time>2020-09-03T20:56:21+02:00</time>
      </trkpt>
      <trkpt lat="44.81717" lon="1.56112">
        <ele>167</ele>
        <time>2020-09-03T20:56:26+02:00</time>
      </trkpt>
      <trkpt lat="44.8173" lon="1.5614">
        <ele>170</ele>
        <time>2020-09-03T20:56:31+02:00</time>
      </trkpt>
      <trkpt lat="44.81744" lon="1.56207">
        <ele>175</ele>
        <time>2020-09-03T20:56:36+02:00</time>
      </trkpt>
      <trkpt lat="44.81742" lon="1.56266">
        <ele>178</ele>
        <time>2020-09-03T20:56:41+02:00</time>
      </trkpt>
      <trkpt lat="44.81749" lon="1.56329">
        <ele>177</ele>
        <time>2020-09-03T20:56:46+02:00</time>
      </trkpt>
      <trkpt lat="44.81806" lon="1.56402">
        <ele>190</ele>
        <time>2020-09-03T20:56:51+02:00</time>
      </trkpt>
      <trkpt lat="44.81662" lon="1.56509">
        <ele>211</ele>
        <time>2020-09-03T20:56:56+02:00</time>
      </trkpt>
      <trkpt lat="44.81629" lon="1.56508">
        <ele>217</ele>
        <time>2020-09-03T20:57:01+02:00</time>
      </trkpt>
      <trkpt lat="44.81641" lon="1.56546">
        <ele>217</ele>
        <time>2020-09-03T20:57:06+02:00</time>
      </trkpt>
      <trkpt lat="44.81616" lon="1.56578">
        <ele>222</ele>
        <time>2020-09-03T20:57:11+02:00</time>
      </trkpt>
      <trkpt lat="44.81581" lon="1.56662">
        <ele>231</ele>
        <time>2020-09-03T20:57:16+02:00</time>
      </trkpt>
      <trkpt lat="44.81551" lon="1.56625">
        <ele>233</ele>
        <time>2020-09-03T20:57:21+02:00</time>
      </trkpt>
      <trkpt lat="44.81526" lon="1.56717">
        <ele>239</ele>
        <time>2020-09-03T20:57:26+02:00</time>
      </trkpt>
      <trkpt lat="44.81479" lon="1.56784">
        <ele>244</ele>
        <time>2020-09-03T20:57:31+02:00</time>
      </trkpt>
      <trkpt lat="44.81421" lon="1.56827">
        <ele>250</ele>
        <time>2020-09-03T20:57:36+02:00</time>
      </trkpt>
      <trkpt lat="44.81382" lon="1.56857">
        <ele>254</ele>
        <time>2020-09-03T20:57:41+02:00</time>
      </trkpt>
      <trkpt lat="44.81347" lon="1.56934">
        <ele>256</ele>
        <time>2020-09-03T20:57:46+02:00</time>
      </trkpt>
      <trkpt lat="44.81281" lon="1.57116">
        <ele>260</ele>
        <time>2020-09-03T20:57:51+02:00</time>
      </trkpt>
      <trkpt lat="44.81229" lon="1.57276">
        <ele>259</ele>
        <time>2020-09-03T20:57:56+02:00</time>
      </trkpt>
      <trkpt lat="44.81216" lon="1.57342">
        <ele>259</ele>
        <time>2020-09-03T20:58:01+02:00</time>
      </trkpt>
      <trkpt lat="44.8124" lon="1.57408">
        <ele>260</ele>
        <time>2020-09-03T20:58:06+02:00</time>
      </trkpt>
      <trkpt lat="44.81265" lon="1.57471">
        <ele>260</ele>
        <time>2020-09-03T20:58:11+02:00</time>
      </trkpt>
      <trkpt lat="44.81284" lon="1.57543">
        <ele>259</ele>
        <time>2020-09-03T20:58:16+02:00</time>
      </trkpt>
      <trkpt lat="44.81307" lon="1.57646">
        <ele>258</ele>
        <time>2020-09-03T20:58:21+02:00</time>
      </trkpt>
      <trkpt lat="44.81355" lon="1.57726">
        <ele>254</ele>
        <time>2020-09-03T20:58:26+02:00</time>
      </trkpt>
      <trkpt lat="44.81367" lon="1.5779">
        <ele>249</ele>
        <time>2020-09-03T20:58:31+02:00</time>
      </trkpt>
      <trkpt lat="44.81377" lon="1.57825">
        <ele>246</ele>
        <time>2020-09-03T20:58:36+02:00</time>
      </trkpt>
      <trkpt lat="44.81388" lon="1.57852">
        <ele>244</ele>
        <time>2020-09-03T20:58:41+02:00</time>
      </trkpt>
      <trkpt lat="44.81406" lon="1.5788">
        <ele>244</ele>
        <time>2020-09-03T20:58:46+02:00</time>
      </trkpt>
      <trkpt lat="44.81424" lon="1.57908">
        <ele>243</ele>
        <time>2020-09-03T20:58:51+02:00</time>
      </trkpt>
      <trkpt lat="44.81449" lon="1.57929">
        <ele>241</ele>
        <time>2020-09-03T20:58:56+02:00</time>
      </trkpt>
      <trkpt lat="44.81474" lon="1.57949">
        <ele>238</ele>
        <time>2020-09-03T20:59:01+02:00</time>
      </trkpt>
      <trkpt lat="44.81508" lon="1.57976">
        <ele>234</ele>
        <time>2020-09-03T20:59:06+02:00</time>
      </trkpt>
      <trkpt lat="44.81548" lon="1.58006">
        <ele>233</ele>
        <time>2020-09-03T20:59:11+02:00</time>
      </trkpt>
      <trkpt lat="44.81583" lon="1.58048">
        <ele>228</ele>
        <time>2020-09-03T20:59:16+02:00</time>
      </trkpt>
      <trkpt lat="44.81607" lon="1.58151">
        <ele>221</ele>
        <time>2020-09-03T20:59:21+02:00</time>
      </trkpt>
      <trkpt lat="44.81724" lon="1.58183">
        <ele>231</ele>
        <time>2020-09-03T20:59:26+02:00</time>
      </trkpt>
      <trkpt lat="44.81829" lon="1.58222">
        <ele>242</ele>
        <time>2020-09-03T20:59:31+02:00</time>
      </trkpt>
      <trkpt lat="44.81849" lon="1.5826">
        <ele>249</ele>
        <time>2020-09-03T20:59:36+02:00</time>
      </trkpt>
      <trkpt lat="44.81764" lon="1.58277">
        <ele>251</ele>
        <time>2020-09-03T20:59:41+02:00</time>
      </trkpt>
      <trkpt lat="44.81682" lon="1.58256">
        <ele>244</ele>
        <time>2020-09-03T20:59:46+02:00</time>
      </trkpt>
      <trkpt lat="44.81612" lon="1.58279">
        <ele>243</ele>
        <time>2020-09-03T20:59:51+02:00</time>
      </trkpt>
      <trkpt lat="44.81569" lon="1.58311">
        <ele>248</ele>
        <time>2020-09-03T20:59:56+02:00</time>
      </trkpt>
      <trkpt lat="44.8152" lon="1.58346">
        <ele>255</ele>
        <time>2020-09-03T21:00:01+02:00</time>
      </trkpt>
      <trkpt lat="44.81502" lon="1.58297">
        <ele>249</ele>
        <time>2020-09-03T21:00:06+02:00</time>
      </trkpt>
      <trkpt lat="44.81475" lon="1.58256">
        <ele>246</ele>
        <time>2020-09-03T21:00:11+02:00</time>
      </trkpt>
      <trkpt lat="44.81363" lon="1.58224">
        <ele>243</ele>
        <time>2020-09-03T21:00:16+02:00</time>
      </trkpt>
      <trkpt lat="44.81295" lon="1.58239">
        <ele>239</ele>
        <time>2020-09-03T21:00:21+02:00</time>
      </trkpt>
      <trkpt lat="44.81295" lon="1.58295">
        <ele>243</ele>
        <time>2020-09-03T21:00:26+02:00</time>
      </trkpt>
      <trkpt lat="44.81298" lon="1.58404">
        <ele>254</ele>
        <time>2020-09-03T21:00:31+02:00</time>
      </trkpt>
      <trkpt lat="44.81271" lon="1.58458">
        <ele>256</ele>
        <time>2020-09-03T21:00:36+02:00</time>
      </trkpt>
      <trkpt lat="44.81254" lon="1.58447">
        <ele>254</ele>
        <time>2020-09-03T21:00:41+02:00</time>
      </trkpt>
      <trkpt lat="44.8124" lon="1.58415">
        <ele>250</ele>
        <time>2020-09-03T21:00:46+02:00</time>
      </trkpt>
      <trkpt lat="44.81204" lon="1.58406">
        <ele>248</ele>
        <time>2020-09-03T21:00:51+02:00</time>
      </trkpt>
      <trkpt lat="44.81134" lon="1.58391">
        <ele>242</ele>
        <time>2020-09-03T21:00:56+02:00</time>
      </trkpt>
      <trkpt lat="44.81051" lon="1.58406">
        <ele>244</ele>
        <time>2020-09-03T21:01:01+02:00</time>
      </trkpt>
      <trkpt lat="44.80948" lon="1.58453">
        <ele>245</ele>
        <time>2020-09-03T21:01:06+02:00</time>
      </trkpt>
      <trkpt lat="44.80894" lon="1.58484">
        <ele>243</ele>
        <time>2020-09-03T21:01:11+02:00</time>
      </trkpt>
      <trkpt lat="44.80855" lon="1.58558">
        <ele>244</ele>
        <time>2020-09-03T21:01:16+02:00</time>
      </trkpt>
      <trkpt lat="44.8079" lon="1.58526">
        <ele>239</ele>
        <time>2020-09-03T21:01:21+02:00</time>
      </trkpt>
      <trkpt lat="44.80739" lon="1.5849">
        <ele>239</ele>
        <time>2020-09-03T21:01:26+02:00</time>
      </trkpt>
      <trkpt lat="44.80706" lon="1.58427">
        <ele>241</ele>
        <time>2020-09-03T21:01:31+02:00</time>
      </trkpt>
      <trkpt lat="44.80656" lon="1.58365">
        <ele>246</ele>
        <time>2020-09-03T21:01:36+02:00</time>
      </trkpt>
      <trkpt lat="44.80627" lon="1.58371">
        <ele>248</ele>
        <time>2020-09-03T21:01:41+02:00</time>
      </trkpt>
      <trkpt lat="44.80592" lon="1.58402">
        <ele>250</ele>
        <time>2020-09-03T21:01:46+02:00</time>
      </trkpt>
      <trkpt lat="44.8068" lon="1.58535">
        <ele>241</ele>
        <time>2020-09-03T21:01:51+02:00</time>
      </trkpt>
      <trkpt lat="44.80762" lon="1.58681">
        <ele>222</ele>
        <time>2020-09-03T21:01:56+02:00</time>
      </trkpt>
      <trkpt lat="44.80705" lon="1.58682">
        <ele>216</ele>
        <time>2020-09-03T21:02:01+02:00</time>
      </trkpt>
      <trkpt lat="44.80648" lon="1.587">
        <ele>204</ele>
        <time>2020-09-03T21:02:06+02:00</time>
      </trkpt>
      <trkpt lat="44.80684" lon="1.58713">
        <ele>202</ele>
        <time>2020-09-03T21:02:11+02:00</time>
      </trkpt>
      <trkpt lat="44.80714" lon="1.58734">
        <ele>198</ele>
        <time>2020-09-03T21:02:16+02:00</time>
      </trkpt>
      <trkpt lat="44.8073" lon="1.58784">
        <ele>186</ele>
        <time>2020-09-03T21:02:21+02:00</time>
      </trkpt>
      <trkpt lat="44.80744" lon="1.58831">
        <ele>174</ele>
        <time>2020-09-03T21:02:26+02:00</time>
      </trkpt>
      <trkpt lat="44.8069" lon="1.58821">
        <ele>170</ele>
        <time>2020-09-03T21:02:31+02:00</time>
      </trkpt>
      <trkpt lat="44.8059" lon="1.58859">
        <ele>168</ele>
        <time>2020-09-03T21:02:36+02:00</time>
      </trkpt>
      <trkpt lat="44.80652" lon="1.58867">
        <ele>171</ele>
        <time>2020-09-03T21:02:41+02:00</time>
      </trkpt>
      <trkpt lat="44.8073" lon="1.58938">
        <ele>180</ele>
        <time>2020-09-03T21:02:46+02:00</time>
      </trkpt>
      <trkpt lat="44.80756" lon="1.59006">
        <ele>188</ele>
        <time>2020-09-03T21:02:51+02:00</time>
      </trkpt>
      <trkpt lat="44.80784" lon="1.59031">
        <ele>187</ele>
        <time>2020-09-03T21:02:56+02:00</time>
      </trkpt>
      <trkpt lat="44.80788" lon="1.59097">
        <ele>193</ele>
        <time>2020-09-03T21:03:01+02:00</time>
      </trkpt>
      <trkpt lat="44.80698" lon="1.5902">
        <ele>201</ele>
        <time>2020-09-03T21:03:06+02:00</time>
      </trkpt>
      <trkpt lat="44.80639" lon="1.59034">
        <ele>214</ele>
        <time>2020-09-03T21:03:11+02:00</time>
      </trkpt>
      <trkpt lat="44.80604" lon="1.59103">
        <ele>232</ele>
        <time>2020-09-03T21:03:16+02:00</time>
      </trkpt>
      <trkpt lat="44.80601" lon="1.59202">
        <ele>241</ele>
        <time>2020-09-03T21:03:21+02:00</time>
      </trkpt>
      <trkpt lat="44.80561" lon="1.59378">
        <ele>254</ele>
        <time>2020-09-03T21:03:26+02:00</time>
      </trkpt>
      <trkpt lat="44.80561" lon="1.59416">
        <ele>257</ele>
        <time>2020-09-03T21:03:31+02:00</time>
      </trkpt>
      <trkpt lat="44.80499" lon="1.59491">
        <ele>262</ele>
        <time>2020-09-03T21:03:36+02:00</time>
      </trkpt>
      <trkpt lat="44.80432" lon="1.59559">
        <ele>266</ele>
        <time>2020-09-03T21:03:41+02:00</time>
      </trkpt>
      <trkpt lat="44.80426" lon="1.59705">
        <ele>267</ele>
        <time>2020-09-03T21:03:46+02:00</time>
      </trkpt>
      <trkpt lat="44.80404" lon="1.59838">
        <ele>266</ele>
        <time>2020-09-03T21:03:51+02:00</time>
      </trkpt>
      <trkpt lat="44.80535" lon="1.5984">
        <ele>272</ele>
        <time>2020-09-03T21:03:56+02:00</time>
      </trkpt>
      <trkpt lat="44.80531" lon="1.60043">
        <ele>275</ele>
        <time>2020-09-03T21:04:01+02:00</time>
      </trkpt>
      <trkpt lat="44.80514" lon="1.60333">
        <ele>275</ele>
        <time>2020-09-03T21:04:06+02:00</time>
      </trkpt>
      <trkpt lat="44.80485" lon="1.60466">
        <ele>269</ele>
        <time>2020-09-03T21:04:11+02:00</time>
      </trkpt>
      <trkpt lat="44.80502" lon="1.60522">
        <ele>268</ele>
        <time>2020-09-03T21:04:16+02:00</time>
      </trkpt>
      <trkpt lat="44.80458" lon="1.60623">
        <ele>265</ele>
        <time>2020-09-03T21:04:21+02:00</time>
      </trkpt>
      <trkpt lat="44.80455" lon="1.60651">
        <ele>266</ele>
        <time>2020-09-03T21:04:26+02:00</time>
      </trkpt>
      <trkpt lat="44.80391" lon="1.60668">
        <ele>263</ele>
        <time>2020-09-03T21:04:31+02:00</time>
      </trkpt>
      <trkpt lat="44.80379" lon="1.60696">
        <ele>264</ele>
        <time>2020-09-03T21:04:36+02:00</time>
      </trkpt>
      <trkpt lat="44.80386" lon="1.60787">
        <ele>267</ele>
        <time>2020-09-03T21:04:41+02:00</time>
      </trkpt>
      <trkpt lat="44.80369" lon="1.60955">
        <ele>269</ele>
        <time>2020-09-03T21:04:46+02:00</time>
      </trkpt>
      <trkpt lat="44.80399" lon="1.61055">
        <ele>268</ele>
        <time>2020-09-03T21:04:51+02:00</time>
      </trkpt>
      <trkpt lat="44.80444" lon="1.61151">
        <ele>270</ele>
        <time>2020-09-03T21:04:56+02:00</time>
      </trkpt>
      <trkpt lat="44.80452" lon="1.61251">
        <ele>272</ele>
        <time>2020-09-03T21:05:01+02:00</time>
      </trkpt>
      <trkpt lat="44.80418" lon="1.61281">
        <ele>272</ele>
        <time>2020-09-03T21:05:06+02:00</time>
      </trkpt>
      <trkpt lat="44.80353" lon="1.61363">
        <ele>273</ele>
        <time>2020-09-03T21:05:11+02:00</time>
      </trkpt>
      <trkpt lat="44.80275" lon="1.61505">
        <ele>269</ele>
        <time>2020-09-03T21:05:16+02:00</time>
      </trkpt>
      <trkpt lat="44.80245" lon="1.61573">
        <ele>269</ele>
        <time>2020-09-03T21:05:21+02:00</time>
      </trkpt>
      <trkpt lat="44.80212" lon="1.61658">
        <ele>269</ele>
        <time>2020-09-03T21:05:26+02:00</time>
      </trkpt>
      <trkpt lat="44.80187" lon="1.61762">
        <ele>259</ele>
        <time>2020-09-03T21:05:31+02:00</time>
      </trkpt>
      <trkpt lat="44.80208" lon="1.61808">
        <ele>253</ele>
        <time>2020-09-03T21:05:36+02:00</time>
      </trkpt>
      <trkpt lat="44.80238" lon="1.61854">
        <ele>253</ele>
        <time>2020-09-03T21:05:41+02:00</time>
      </trkpt>
      <trkpt lat="44.80249" lon="1.61957">
        <ele>237</ele>
        <time>2020-09-03T21:05:46+02:00</time>
      </trkpt>
      <trkpt lat="44.80272" lon="1.62">
        <ele>235</ele>
        <time>2020-09-03T21:05:51+02:00</time>
      </trkpt>
      <trkpt lat="44.80338" lon="1.62054">
        <ele>256</ele>
        <time>2020-09-03T21:05:56+02:00</time>
      </trkpt>
      <trkpt lat="44.80398" lon="1.62165">
        <ele>250</ele>
        <time>2020-09-03T21:06:01+02:00</time>
      </trkpt>
      <trkpt lat="44.8046" lon="1.62276">
        <ele>250</ele>
        <time>2020-09-03T21:06:06+02:00</time>
      </trkpt>
      <trkpt lat="44.80487" lon="1.62434">
        <ele>256</ele>
        <time>2020-09-03T21:06:11+02:00</time>
      </trkpt>
      <trkpt lat="44.80508" lon="1.62414">
        <ele>261</ele>
        <time>2020-09-03T21:06:16+02:00</time>
      </trkpt>
      <trkpt lat="44.80544" lon="1.62404">
        <ele>263</ele>
        <time>2020-09-03T21:06:21+02:00</time>
      </trkpt>
      <trkpt lat="44.80613" lon="1.62402">
        <ele>266</ele>
        <time>2020-09-03T21:06:26+02:00</time>
      </trkpt>
      <trkpt lat="44.80657" lon="1.62436">
        <ele>266</ele>
        <time>2020-09-03T21:06:31+02:00</time>
      </trkpt>
      <trkpt lat="44.80669" lon="1.62592">
        <ele>263</ele>
        <time>2020-09-03T21:06:36+02:00</time>
      </trkpt>
      <trkpt lat="44.80574" lon="1.62645">
        <ele>258</ele>
        <time>2020-09-03T21:06:41+02:00</time>
      </trkpt>
      <trkpt lat="44.80522" lon="1.62646">
        <ele>259</ele>
        <time>2020-09-03T21:06:46+02:00</time>
      </trkpt>
    </trkseg>
  </trk>
</gpx>